createdAt,value
2018-09-12T00:00:19.141Z,13.10
2018-09-12T00:02:47.436Z,8.43
2018-09-12T00:05:15.792Z,7.90
2018-09-12T00:07:44.034Z,8.43
2018-09-12T00:10:12.325Z,11.90
2018-09-12T00:12:40.606Z,7.77
2018-09-12T00:15:10.239Z,7.37
2018-09-12T00:17:38.532Z,9.03
2018-09-12T00:20:06.834Z,10.07
2018-09-12T00:22:35.250Z,10.63
2018-09-12T00:25:03.577Z,9.10
2018-09-12T00:27:31.905Z,7.17
2018-09-12T00:30:00.314Z,12.23
2018-09-12T00:32:28.621Z,8.43
2018-09-12T00:34:58.801Z,11.80
2018-09-12T00:37:29.979Z,9.80
2018-09-12T00:39:58.281Z,7.63
2018-09-12T00:42:26.553Z,7.50
2018-09-12T00:44:54.893Z,10.60
2018-09-12T00:47:23.202Z,12.17
2018-09-12T00:49:52.616Z,10.03
2018-09-12T00:52:20.919Z,8.50
2018-09-12T00:54:49.242Z,8.63
2018-09-12T00:57:18.509Z,10.50
2018-09-12T00:59:46.813Z,8.60
2018-09-12T01:02:16.118Z,9.50
2018-09-12T01:04:44.497Z,10.20
2018-09-12T01:07:13.836Z,8.03
2018-09-12T01:09:42.374Z,7.40
2018-09-12T01:12:10.679Z,8.23
2018-09-12T01:14:40.006Z,11.63
2018-09-12T01:17:08.325Z,11.87
2018-09-12T01:19:37.633Z,9.20
2018-09-12T01:22:06.059Z,8.50
2018-09-12T01:24:34.388Z,11.53
2018-09-12T01:27:02.714Z,8.47
2018-09-12T01:29:31.809Z,11.33
2018-09-12T01:32:00.829Z,9.80
2018-09-12T01:34:29.853Z,8.60
2018-09-12T01:36:58.203Z,9.40
2018-09-12T01:39:26.506Z,9.30
2018-09-12T01:41:54.860Z,9.77
2018-09-12T01:44:23.731Z,10.00
2018-09-12T01:46:52.058Z,9.10
2018-09-12T01:49:21.352Z,9.27
2018-09-12T01:51:50.217Z,7.63
2018-09-12T01:54:18.986Z,9.60
2018-09-12T01:56:47.299Z,7.80
2018-09-12T01:59:15.639Z,9.63
2018-09-12T02:01:45.144Z,10.83
2018-09-12T02:04:13.460Z,8.00
2018-09-12T02:06:41.767Z,9.40
2018-09-12T02:09:12.241Z,7.60
2018-09-12T02:11:40.566Z,9.17
2018-09-12T02:14:08.885Z,10.63
2018-09-12T02:16:37.216Z,8.97
2018-09-12T02:19:05.698Z,11.20
2018-09-12T02:21:34.003Z,7.73
2018-09-12T02:24:02.341Z,7.53
2018-09-12T02:26:30.643Z,7.50
2018-09-12T02:28:58.954Z,9.83
2018-09-12T02:31:28.322Z,10.43
2018-09-12T02:33:56.626Z,7.80
2018-09-12T02:36:28.977Z,9.80
2018-09-12T02:38:58.591Z,9.80
2018-09-12T02:41:26.921Z,7.10
2018-09-12T02:43:55.447Z,12.07
2018-09-12T02:46:23.858Z,8.97
2018-09-12T02:48:52.609Z,9.20
2018-09-12T02:51:20.926Z,11.70
2018-09-12T02:53:49.253Z,8.80
2018-09-12T02:56:18.028Z,8.07
2018-09-12T02:58:46.348Z,10.23
2018-09-12T03:01:14.692Z,8.30
2018-09-12T03:03:43.279Z,8.03
2018-09-12T03:06:11.627Z,11.50
2018-09-12T03:08:39.933Z,10.50
2018-09-12T03:11:08.286Z,7.93
2018-09-12T03:13:36.611Z,14.70
2018-09-12T03:16:04.950Z,8.43
2018-09-12T03:18:33.284Z,9.80
2018-09-12T03:21:01.789Z,10.10
2018-09-12T03:23:29.973Z,7.07
2018-09-12T03:25:58.311Z,10.50
2018-09-12T03:28:26.634Z,11.17
2018-09-12T03:30:54.964Z,11.40
2018-09-12T03:33:23.305Z,11.17
2018-09-12T03:35:51.629Z,6.37
2018-09-12T03:38:20.942Z,8.10
2018-09-12T03:40:49.253Z,9.57
2018-09-12T03:43:17.564Z,7.80
2018-09-12T03:45:45.978Z,10.70
2018-09-12T03:48:15.342Z,9.87
2018-09-12T03:50:43.663Z,7.80
2018-09-12T03:53:12.014Z,9.80
2018-09-12T03:55:40.325Z,9.43
2018-09-12T03:58:08.641Z,8.23
2018-09-12T04:00:36.997Z,11.53
2018-09-12T04:03:05.434Z,9.67
2018-09-12T04:05:33.808Z,9.60
2018-09-12T04:08:02.076Z,10.13
2018-09-12T04:10:30.368Z,9.27
2018-09-12T04:12:58.644Z,8.53
2018-09-12T04:15:26.968Z,8.07
2018-09-12T04:17:56.272Z,11.07
2018-09-12T04:20:24.605Z,11.17
2018-09-12T04:22:53.950Z,9.00
2018-09-12T04:25:22.252Z,8.47
2018-09-12T04:27:51.597Z,11.47
2018-09-12T04:30:19.894Z,8.77
2018-09-12T04:32:48.202Z,10.13
2018-09-12T04:35:17.549Z,12.03
2018-09-12T04:37:45.903Z,9.03
2018-09-12T04:40:14.222Z,9.50
2018-09-12T04:42:42.571Z,6.63
2018-09-12T04:45:10.810Z,16.10
2018-09-12T04:47:39.133Z,9.70
2018-09-12T04:50:07.479Z,9.10
2018-09-12T04:52:36.028Z,8.60
2018-09-12T04:55:04.774Z,11.93
2018-09-12T04:57:34.234Z,13.80
2018-09-12T05:00:03.177Z,10.87
2018-09-12T05:02:31.713Z,10.40
2018-09-12T05:05:00.035Z,7.50
2018-09-12T05:07:29.339Z,7.10
2018-09-12T05:09:57.676Z,9.27
2018-09-12T05:12:25.982Z,12.00
2018-09-12T05:14:54.303Z,12.43
2018-09-12T05:17:22.637Z,9.10
2018-09-12T05:19:50.917Z,9.83
2018-09-12T05:22:19.257Z,9.03
2018-09-12T05:24:47.590Z,8.27
2018-09-12T05:27:15.844Z,9.23
2018-09-12T05:29:50.660Z,8.57
2018-09-12T05:32:19.036Z,10.67
2018-09-12T05:34:47.333Z,9.80
2018-09-12T05:37:15.645Z,7.70
2018-09-12T05:39:44.061Z,11.53
2018-09-12T05:42:12.556Z,11.00
2018-09-12T05:44:40.906Z,10.33
2018-09-12T05:47:09.244Z,8.67
2018-09-12T05:49:37.564Z,8.23
2018-09-12T05:52:06.816Z,11.40
2018-09-12T05:54:35.381Z,8.30
2018-09-12T05:57:05.823Z,10.87
2018-09-12T05:59:36.037Z,9.10
2018-09-12T06:02:04.895Z,9.23
2018-09-12T06:04:33.249Z,9.77
2018-09-12T06:07:01.638Z,8.47
2018-09-12T06:09:29.840Z,12.50
2018-09-12T06:11:58.158Z,9.60
2018-09-12T06:14:26.531Z,9.40
2018-09-12T06:16:55.829Z,11.27
2018-09-12T06:19:24.152Z,8.60
2018-09-12T06:21:52.475Z,13.33
2018-09-12T06:24:20.846Z,12.97
2018-09-12T06:26:49.181Z,11.90
2018-09-12T06:29:17.601Z,10.20
2018-09-12T06:31:45.962Z,11.47
2018-09-12T06:34:14.268Z,102.17
2018-09-12T06:36:42.656Z,358.37
2018-09-12T06:39:12.259Z,499.53
2018-09-12T06:41:40.579Z,366.47
2018-09-12T06:44:09.059Z,317.83
2018-09-12T06:46:37.725Z,345.10
2018-09-12T06:49:06.619Z,250.37
2018-09-12T06:51:34.956Z,252.23
2018-09-12T06:54:03.485Z,223.87
2018-09-12T06:56:31.847Z,220.33
2018-09-12T06:59:00.170Z,203.97
2018-09-12T07:01:28.571Z,176.97
2018-09-12T07:03:56.910Z,165.50
2018-09-12T07:06:25.189Z,162.83
2018-09-12T07:08:53.577Z,150.00
2018-09-12T07:11:21.845Z,160.83
2018-09-12T07:13:50.157Z,157.13
2018-09-12T07:16:18.501Z,128.60
2018-09-12T07:18:46.833Z,145.90
2018-09-12T07:21:15.112Z,148.57
2018-09-12T07:23:43.429Z,137.90
2018-09-12T07:26:11.767Z,143.83
2018-09-12T07:28:40.103Z,142.23
2018-09-12T07:31:08.446Z,125.63
2018-09-12T07:33:36.797Z,129.43
2018-09-12T07:36:05.081Z,144.03
2018-09-12T07:38:33.418Z,118.43
2018-09-12T07:41:01.857Z,103.77
2018-09-12T07:43:30.222Z,117.43
2018-09-12T07:45:58.561Z,122.23
2018-09-12T07:48:26.917Z,112.27
2018-09-12T07:50:55.261Z,106.53
2018-09-12T07:53:23.606Z,129.67
2018-09-12T07:55:51.983Z,117.73
2018-09-12T07:58:20.285Z,120.37
2018-09-12T08:00:48.607Z,114.00
2018-09-12T08:03:16.912Z,95.87
2018-09-12T08:05:45.239Z,88.07
2018-09-12T08:08:13.561Z,93.00
2018-09-12T08:10:41.906Z,104.20
2018-09-12T08:13:11.258Z,114.13
2018-09-12T08:15:39.578Z,111.10
2018-09-12T08:18:07.895Z,107.77
2018-09-12T08:20:36.200Z,87.50
2018-09-12T08:23:05.531Z,92.03
2018-09-12T08:25:33.842Z,85.30
2018-09-12T08:28:02.154Z,93.67
2018-09-12T08:30:30.465Z,89.13
2018-09-12T08:32:58.786Z,100.93
2018-09-12T08:35:28.122Z,74.70
2018-09-12T08:37:57.439Z,108.57
2018-09-12T08:40:25.814Z,98.13
2018-09-12T08:42:54.130Z,100.43
2018-09-12T08:45:22.434Z,83.83
2018-09-12T08:47:50.821Z,80.40
2018-09-12T08:50:23.470Z,91.77
2018-09-12T08:52:54.223Z,77.77
2018-09-12T08:55:23.528Z,93.40
2018-09-12T08:57:51.844Z,91.87
2018-09-12T09:00:20.241Z,86.10
2018-09-12T09:02:48.477Z,79.30
2018-09-12T09:05:16.796Z,78.87
2018-09-12T09:07:45.118Z,80.07
2018-09-12T09:10:13.459Z,90.27
2018-09-12T09:12:41.769Z,83.03
2018-09-12T09:15:10.093Z,95.60
2018-09-12T09:17:38.421Z,86.93
2018-09-12T09:20:06.758Z,81.33
2018-09-12T09:22:35.057Z,74.77
2018-09-12T09:25:03.370Z,70.17
2018-09-12T09:27:31.714Z,77.70
2018-09-12T09:30:00.012Z,70.40
2018-09-12T09:32:28.451Z,74.90
2018-09-12T09:34:56.743Z,62.97
2018-09-12T09:37:25.062Z,65.90
2018-09-12T09:39:53.401Z,59.60
2018-09-12T09:42:21.743Z,71.93
2018-09-12T09:44:50.074Z,65.07
2018-09-12T09:47:18.393Z,63.10
2018-09-12T09:49:46.765Z,59.43
2018-09-12T09:52:16.093Z,57.93
2018-09-12T09:54:44.514Z,72.77
2018-09-12T09:57:12.782Z,67.97
2018-09-12T09:59:41.168Z,57.63
2018-09-12T10:02:14.938Z,80.27
2018-09-12T10:04:48.905Z,77.87
2018-09-12T10:07:22.526Z,67.57
2018-09-12T10:09:55.161Z,57.20
2018-09-12T10:12:23.485Z,66.20
2018-09-12T10:14:51.778Z,68.33
2018-09-12T10:17:20.133Z,65.80
2018-09-12T10:19:48.429Z,60.57
2018-09-12T10:22:16.752Z,60.90
2018-09-12T10:24:45.140Z,49.17
2018-09-12T10:27:13.479Z,56.73
2018-09-12T10:29:41.805Z,49.97
2018-09-12T10:32:10.149Z,56.50
2018-09-12T10:34:40.785Z,72.60
2018-09-12T10:37:09.149Z,59.37
2018-09-12T10:39:37.478Z,53.43
2018-09-12T10:42:05.766Z,49.13
2018-09-12T10:44:34.083Z,52.60
2018-09-12T10:47:02.454Z,61.13
2018-09-12T10:49:31.819Z,55.03
2018-09-12T10:52:01.426Z,61.87
2018-09-12T10:54:29.905Z,51.80
2018-09-12T10:56:59.271Z,50.07
2018-09-12T10:59:27.606Z,54.03
2018-09-12T11:01:56.956Z,53.87
2018-09-12T11:04:25.346Z,44.70
2018-09-12T11:06:53.629Z,53.83
2018-09-12T11:09:21.933Z,61.30
2018-09-12T11:11:51.322Z,55.20
2018-09-12T11:14:19.650Z,57.03
2018-09-12T11:16:48.049Z,52.37
2018-09-12T11:19:16.376Z,50.00
2018-09-12T11:21:44.733Z,58.57
2018-09-12T11:24:13.951Z,51.33
2018-09-12T11:26:43.397Z,55.20
2018-09-12T11:29:11.745Z,51.53
2018-09-12T11:31:40.086Z,50.10
2018-09-12T11:34:09.476Z,45.77
2018-09-12T11:36:37.746Z,46.80
2018-09-12T11:39:08.583Z,58.13
2018-09-12T11:41:43.601Z,46.17
2018-09-12T11:44:11.938Z,42.83
2018-09-12T11:46:40.288Z,43.80
2018-09-12T11:49:08.641Z,51.07
2018-09-12T11:51:36.934Z,41.80
2018-09-12T11:54:06.093Z,52.77
2018-09-12T11:56:34.447Z,42.23
2018-09-12T11:59:03.071Z,44.93
2018-09-12T12:01:31.366Z,48.60
2018-09-12T12:03:59.684Z,42.00
2018-09-12T12:06:28.053Z,42.70
2018-09-12T12:08:56.605Z,52.10
2018-09-12T12:11:25.007Z,45.37
2018-09-12T12:13:53.356Z,42.10
2018-09-12T12:16:22.706Z,43.63
2018-09-12T12:18:51.887Z,53.67
2018-09-12T12:21:20.250Z,43.60
2018-09-12T12:23:48.657Z,48.70
2018-09-12T12:26:17.058Z,38.90
2018-09-12T12:28:46.381Z,49.87
2018-09-12T12:31:16.345Z,42.20
2018-09-12T12:33:44.672Z,41.83
2018-09-12T12:36:12.967Z,38.33
2018-09-12T12:38:41.329Z,36.63
2018-09-12T12:41:09.670Z,48.17
2018-09-12T12:43:37.953Z,41.67
2018-09-12T12:46:06.361Z,39.40
2018-09-12T12:48:34.666Z,45.83
2018-09-12T12:51:02.989Z,37.20
2018-09-12T12:53:31.273Z,42.60
2018-09-12T12:55:59.621Z,43.17
2018-09-12T12:58:27.934Z,33.77
2018-09-12T13:00:56.295Z,37.73
2018-09-12T13:03:24.596Z,44.83
2018-09-12T13:05:52.916Z,39.73
2018-09-12T13:08:21.259Z,36.53
2018-09-12T13:10:49.621Z,38.37
2018-09-12T13:13:17.974Z,37.13
2018-09-12T13:15:46.273Z,32.83
2018-09-12T13:18:14.580Z,37.33
2018-09-12T13:20:42.903Z,42.57
2018-09-12T13:23:11.218Z,40.60
2018-09-12T13:25:39.531Z,37.53
2018-09-12T13:28:08.895Z,38.40
2018-09-12T13:30:43.814Z,34.60
2018-09-12T13:33:12.120Z,37.63
2018-09-12T13:35:40.487Z,39.30
2018-09-12T13:38:08.805Z,41.60
2018-09-12T13:40:37.109Z,33.97
2018-09-12T13:43:05.472Z,38.00
2018-09-12T13:45:33.798Z,34.63
2018-09-12T13:48:02.171Z,38.57
2018-09-12T13:50:30.487Z,30.13
2018-09-12T13:52:58.843Z,30.77
2018-09-12T13:55:28.168Z,30.73
2018-09-12T13:57:56.477Z,35.27
2018-09-12T14:00:24.845Z,31.87
2018-09-12T14:02:53.198Z,35.80
2018-09-12T14:05:27.086Z,29.20
2018-09-12T14:07:55.445Z,30.73
2018-09-12T14:10:24.801Z,31.63
2018-09-12T14:12:53.092Z,37.57
2018-09-12T14:15:21.594Z,32.20
2018-09-12T14:17:49.910Z,31.27
2018-09-12T14:20:19.249Z,32.47
2018-09-12T14:22:47.667Z,33.17
2018-09-12T14:25:15.978Z,32.40
2018-09-12T14:27:44.289Z,33.03
2018-09-12T14:30:12.609Z,31.07
2018-09-12T14:32:40.906Z,33.17
2018-09-12T14:35:09.293Z,30.80
2018-09-12T14:37:37.827Z,35.40
2018-09-12T14:40:06.217Z,31.43
2018-09-12T14:42:34.546Z,33.93
2018-09-12T14:45:03.989Z,28.67
2018-09-12T14:47:32.272Z,39.97
2018-09-12T14:50:01.658Z,34.60
2018-09-12T14:52:30.038Z,34.17
2018-09-12T14:54:58.346Z,32.73
2018-09-12T14:57:26.677Z,27.87
2018-09-12T14:59:56.026Z,30.40
2018-09-12T15:02:24.366Z,30.90
2018-09-12T15:04:52.700Z,30.10
2018-09-12T15:07:20.989Z,28.20
2018-09-12T15:09:49.325Z,28.37
2018-09-12T15:12:17.651Z,35.47
2018-09-12T15:14:45.982Z,28.90
2018-09-12T15:17:14.339Z,29.93
2018-09-12T15:19:42.666Z,27.83
2018-09-12T15:22:11.032Z,27.37
2018-09-12T15:24:39.362Z,29.40
2018-09-12T15:27:07.686Z,27.70
2018-09-12T15:29:35.999Z,34.30
2018-09-12T15:32:04.319Z,30.97
2018-09-12T15:34:33.671Z,30.60
2018-09-12T15:37:02.048Z,26.27
2018-09-12T15:39:30.350Z,27.30
2018-09-12T15:41:58.678Z,34.23
2018-09-12T15:44:27.022Z,26.17
2018-09-12T15:46:55.359Z,26.63
2018-09-12T15:49:24.706Z,23.67
2018-09-12T15:51:54.039Z,31.90
2018-09-12T15:54:22.359Z,23.73
2018-09-12T15:56:50.703Z,27.47
2018-09-12T15:59:19.025Z,24.67
2018-09-12T16:01:47.386Z,25.37
2018-09-12T16:04:15.785Z,24.50
2018-09-12T16:06:44.121Z,29.10
2018-09-12T16:09:12.447Z,26.47
2018-09-12T16:11:40.827Z,25.17
2018-09-12T16:14:09.174Z,26.73
2018-09-12T16:16:37.525Z,19.93
2018-09-12T16:19:06.232Z,24.67
2018-09-12T16:21:34.552Z,24.97
2018-09-12T16:24:02.981Z,23.97
2018-09-12T16:26:31.355Z,24.50
2018-09-12T16:28:59.722Z,24.37
2018-09-12T16:31:28.073Z,28.20
2018-09-12T16:33:56.414Z,23.53
2018-09-12T16:36:25.186Z,24.10
2018-09-12T16:38:54.524Z,23.63
2018-09-12T16:41:22.877Z,26.87
2018-09-12T16:43:51.373Z,21.03
2018-09-12T16:46:19.749Z,31.13
2018-09-12T16:48:48.117Z,26.83
2018-09-12T16:51:16.514Z,23.30
2018-09-12T16:53:44.894Z,21.20
2018-09-12T16:56:13.303Z,22.30
2018-09-12T16:58:41.606Z,33.73
2018-09-12T17:01:09.921Z,26.20
2018-09-12T17:03:38.362Z,19.87
2018-09-12T17:06:06.686Z,22.90
2018-09-12T17:08:35.021Z,19.93
2018-09-12T17:11:03.366Z,27.40
2018-09-12T17:13:32.722Z,25.10
2018-09-12T17:16:01.031Z,18.43
2018-09-12T17:18:30.389Z,25.07
2018-09-12T17:20:58.807Z,23.07
2018-09-12T17:23:27.133Z,24.70
2018-09-12T17:25:55.446Z,24.07
2018-09-12T17:28:23.877Z,23.93
2018-09-12T17:30:52.390Z,19.67
2018-09-12T17:33:21.836Z,21.00
2018-09-12T17:35:50.242Z,22.70
2018-09-12T17:38:18.631Z,22.97
2018-09-12T17:40:46.926Z,23.53
2018-09-12T17:43:15.261Z,20.60
2018-09-12T17:45:43.590Z,22.93
2018-09-12T17:48:12.049Z,21.27
2018-09-12T17:50:40.430Z,24.17
2018-09-12T17:53:08.826Z,25.83
2018-09-12T17:55:37.272Z,23.97
2018-09-12T17:58:05.615Z,23.13
2018-09-12T18:00:33.974Z,22.70
2018-09-12T18:03:02.286Z,19.37
2018-09-12T18:05:30.630Z,24.93
2018-09-12T18:07:59.083Z,20.70
2018-09-12T18:10:27.442Z,20.37
2018-09-12T18:12:55.758Z,18.73
2018-09-12T18:15:25.154Z,21.40
2018-09-12T18:17:53.502Z,19.73
2018-09-12T18:20:22.034Z,21.03
2018-09-12T18:22:50.348Z,19.17
2018-09-12T18:25:18.665Z,24.07
2018-09-12T18:27:47.041Z,19.67
2018-09-12T18:30:15.510Z,16.90
2018-09-12T18:32:44.047Z,11.83
2018-09-12T18:35:12.816Z,19.23
2018-09-12T18:37:41.229Z,20.93
2018-09-12T18:40:09.602Z,19.00
2018-09-12T18:42:37.995Z,16.63
2018-09-12T18:45:06.411Z,19.57
2018-09-12T18:47:34.741Z,16.50
2018-09-12T18:50:04.307Z,15.70
2018-09-12T18:52:32.625Z,15.93
2018-09-12T18:55:01.064Z,17.20
2018-09-12T18:57:30.390Z,15.50
2018-09-12T18:59:59.799Z,17.00
2018-09-12T19:02:28.225Z,14.67
2018-09-12T19:04:56.595Z,17.63
2018-09-12T19:07:25.963Z,18.17
2018-09-12T19:09:54.269Z,18.00
2018-09-12T19:12:22.611Z,16.50
2018-09-12T19:14:57.658Z,15.07
2018-09-12T19:17:26.148Z,11.87
2018-09-12T19:19:54.501Z,15.23
2018-09-12T19:22:22.991Z,17.33
2018-09-12T19:24:52.310Z,12.53
2018-09-12T19:27:21.660Z,18.23
2018-09-12T19:29:49.992Z,13.77
2018-09-12T19:32:18.424Z,25.87
2018-09-12T19:34:48.071Z,17.80
2018-09-12T19:37:17.532Z,22.63
2018-09-12T19:39:45.914Z,19.50
2018-09-12T19:42:14.313Z,27.73
2018-09-12T19:44:42.662Z,43.13
2018-09-12T19:47:11.024Z,39.53
2018-09-12T19:49:39.391Z,32.07
2018-09-12T19:52:08.225Z,26.00
2018-09-12T19:54:36.555Z,33.87
2018-09-12T19:57:04.866Z,32.37
2018-09-12T19:59:33.869Z,36.70
2018-09-12T20:02:02.185Z,32.17
2018-09-12T20:04:31.308Z,36.70
2018-09-12T20:07:00.391Z,31.30
2018-09-12T20:09:35.171Z,32.70
2018-09-12T20:12:04.538Z,30.70
2018-09-12T20:14:33.789Z,31.30
2018-09-12T20:17:02.760Z,34.10
2018-09-12T20:19:31.552Z,29.97
2018-09-12T20:22:00.172Z,26.50
2018-09-12T20:24:28.693Z,31.17
2018-09-12T20:26:58.090Z,28.43
2018-09-12T20:29:26.444Z,24.83
2018-09-12T20:31:55.023Z,26.40
2018-09-12T20:34:23.372Z,32.40
2018-09-12T20:36:53.518Z,23.93
2018-09-12T20:39:22.643Z,24.17
2018-09-12T20:41:51.770Z,21.23
2018-09-12T20:44:21.748Z,25.93
2018-09-12T20:46:50.166Z,28.50
2018-09-12T20:49:18.512Z,25.57
2018-09-12T20:51:46.838Z,29.17
2018-09-12T20:54:16.977Z,25.40
2018-09-12T20:56:46.845Z,29.80
2018-09-12T20:59:16.249Z,25.93
2018-09-12T21:01:45.172Z,27.27
2018-09-12T21:04:14.182Z,23.40
2018-09-12T21:06:43.367Z,23.40
2018-09-12T21:09:13.423Z,19.93
2018-09-12T21:11:42.572Z,26.27
2018-09-12T21:14:12.750Z,20.73
2018-09-12T21:16:41.829Z,22.10
2018-09-12T21:19:10.156Z,19.00
2018-09-12T21:21:38.502Z,28.63
2018-09-12T21:24:07.834Z,23.77
2018-09-12T21:26:36.138Z,23.90
2018-09-12T21:29:04.493Z,17.77
2018-09-12T21:31:32.829Z,23.83
2018-09-12T21:34:01.133Z,23.80
2018-09-12T21:36:29.450Z,19.30
2018-09-12T21:38:57.802Z,21.57
2018-09-12T21:41:26.182Z,22.20
2018-09-12T21:43:54.515Z,21.93
2018-09-12T21:46:22.830Z,21.47
2018-09-12T21:48:51.176Z,21.37
2018-09-12T21:51:20.534Z,23.40
2018-09-12T21:53:48.924Z,23.77
2018-09-12T21:56:18.224Z,19.33
2018-09-12T21:58:47.540Z,22.13
2018-09-12T22:01:21.292Z,21.97
2018-09-12T22:03:49.611Z,16.73
2018-09-12T22:06:17.916Z,16.47
2018-09-12T22:08:46.364Z,14.70
2018-09-12T22:11:14.649Z,16.23
2018-09-12T22:13:42.994Z,13.80
2018-09-12T22:16:11.313Z,16.20
2018-09-12T22:18:39.626Z,15.67
2018-09-12T22:21:07.941Z,12.97
2018-09-12T22:23:36.264Z,18.10
2018-09-12T22:26:04.607Z,13.37
2018-09-12T22:28:32.897Z,14.60
2018-09-12T22:31:01.242Z,12.90
2018-09-12T22:33:29.613Z,13.57
2018-09-12T22:35:58.128Z,16.03
2018-09-12T22:38:26.436Z,14.33
2018-09-12T22:40:54.776Z,11.90
2018-09-12T22:43:23.097Z,12.50
2018-09-12T22:45:51.461Z,14.90
2018-09-12T22:48:19.769Z,12.63
2018-09-12T22:50:48.102Z,13.70
2018-09-12T22:53:16.398Z,11.47
2018-09-12T22:55:44.743Z,19.03
2018-09-12T22:58:13.029Z,13.63
2018-09-12T23:00:41.382Z,15.73
2018-09-12T23:03:09.686Z,11.30
2018-09-12T23:05:38.027Z,11.10
2018-09-12T23:08:06.365Z,13.27
2018-09-12T23:10:34.657Z,11.50
2018-09-12T23:13:03.035Z,10.60
2018-09-12T23:15:31.346Z,14.10
2018-09-12T23:17:59.681Z,14.43
2018-09-12T23:20:27.991Z,13.53
2018-09-12T23:22:57.346Z,13.60
2018-09-12T23:25:25.657Z,14.00
2018-09-12T23:27:53.946Z,13.63
2018-09-12T23:30:22.249Z,15.13
2018-09-12T23:32:50.608Z,13.17
2018-09-12T23:35:18.915Z,13.10
2018-09-12T23:37:47.207Z,13.07
2018-09-12T23:40:15.753Z,14.57
2018-09-12T23:42:44.225Z,13.80
2018-09-12T23:45:12.570Z,17.20
2018-09-12T23:47:40.935Z,24.27
2018-09-12T23:50:09.272Z,18.13
2018-09-12T23:52:37.614Z,17.17
2018-09-12T23:55:06.238Z,17.30
2018-09-12T23:57:34.569Z,16.60
